createdAt,value
2018-11-03T00:01:08.905Z,69.52
2018-11-03T00:03:44.570Z,69.76
2018-11-03T00:06:16.306Z,69.84
2018-11-03T00:08:48.882Z,70.03
2018-11-03T00:11:24.110Z,70.28
2018-11-03T00:13:55.330Z,70.13
2018-11-03T00:16:27.638Z,70.71
2018-11-03T00:18:58.960Z,69.97
2018-11-03T00:21:30.538Z,70.17
2018-11-03T00:24:03.149Z,69.89
2018-11-03T00:26:35.401Z,69.63
2018-11-03T00:29:11.014Z,69.66
2018-11-03T00:31:44.471Z,69.54
2018-11-03T00:34:16.452Z,69.71
2018-11-03T00:36:51.440Z,70.23
2018-11-03T00:39:24.222Z,70.09
2018-11-03T00:41:55.512Z,70.02
2018-11-03T00:44:27.462Z,69.97
2018-11-03T00:47:00.621Z,69.85
2018-11-03T00:49:33.980Z,69.92
2018-11-03T00:52:06.272Z,69.91
2018-11-03T00:54:38.139Z,70.38
2018-11-03T00:57:11.122Z,70.54
2018-11-03T00:59:42.996Z,70.56
2018-11-03T01:02:14.143Z,70.42
2018-11-03T01:04:47.205Z,70.47
2018-11-03T01:07:18.783Z,70.61
2018-11-03T01:09:51.348Z,69.88
2018-11-03T01:12:22.593Z,69.77
2018-11-03T01:14:54.169Z,69.83
2018-11-03T01:17:25.928Z,70.00
2018-11-03T01:19:57.890Z,69.58
2018-11-03T01:22:29.692Z,69.31
2018-11-03T01:25:01.184Z,69.66
2018-11-03T01:27:34.015Z,69.45
2018-11-03T01:30:06.272Z,69.11
2018-11-03T01:32:38.091Z,69.54
2018-11-03T01:35:10.534Z,69.08
2018-11-03T01:37:42.448Z,69.98
2018-11-03T01:40:15.222Z,69.57
2018-11-03T01:42:46.960Z,69.47
2018-11-03T01:45:19.305Z,69.51
2018-11-03T01:47:50.726Z,69.26
2018-11-03T01:50:23.009Z,69.37
2018-11-03T01:52:55.399Z,69.33
2018-11-03T01:55:27.209Z,68.96
2018-11-03T01:57:59.266Z,69.03
2018-11-03T02:00:31.843Z,69.40
2018-11-03T02:03:03.704Z,69.55
2018-11-03T02:05:36.463Z,69.51
2018-11-03T02:08:09.583Z,70.17
2018-11-03T02:10:42.178Z,69.77
2018-11-03T02:13:13.776Z,69.74
2018-11-03T02:15:46.412Z,69.70
2018-11-03T02:18:18.338Z,69.40
2018-11-03T02:20:49.866Z,69.56
2018-11-03T02:23:21.640Z,69.31
2018-11-03T02:25:53.247Z,69.17
2018-11-03T02:28:25.079Z,69.13
2018-11-03T02:30:57.599Z,69.27
2018-11-03T02:33:29.190Z,69.40
2018-11-03T02:36:00.814Z,69.82
2018-11-03T02:38:32.831Z,69.66
2018-11-03T02:41:05.041Z,69.61
2018-11-03T02:43:36.786Z,69.81
2018-11-03T02:46:08.888Z,69.87
2018-11-03T02:48:40.955Z,69.70
2018-11-03T02:51:13.260Z,69.52
2018-11-03T02:53:45.092Z,69.45
2018-11-03T02:56:16.850Z,69.61
2018-11-03T02:58:48.332Z,70.00
2018-11-03T03:01:20.002Z,69.82
2018-11-03T03:03:51.621Z,69.85
2018-11-03T03:06:24.000Z,69.57
2018-11-03T03:08:55.845Z,69.49
2018-11-03T03:11:27.318Z,69.54
2018-11-03T03:13:58.818Z,69.55
2018-11-03T03:16:30.588Z,69.44
2018-11-03T03:19:02.065Z,69.49
2018-11-03T03:21:33.529Z,69.75
2018-11-03T03:24:05.347Z,69.05
2018-11-03T03:26:36.835Z,69.24
2018-11-03T03:29:08.964Z,69.48
2018-11-03T03:31:40.460Z,68.89
2018-11-03T03:34:12.144Z,68.82
2018-11-03T03:36:44.089Z,69.10
2018-11-03T03:39:15.312Z,68.92
2018-11-03T03:41:47.187Z,68.56
2018-11-03T03:44:18.645Z,69.18
2018-11-03T03:46:50.144Z,68.82
2018-11-03T03:49:21.944Z,69.00
2018-11-03T03:51:53.661Z,68.88
2018-11-03T03:54:25.347Z,68.86
2018-11-03T03:56:56.456Z,68.88
2018-11-03T03:59:28.017Z,68.66
2018-11-03T04:01:59.986Z,68.20
2018-11-03T04:04:31.423Z,68.86
2018-11-03T04:07:02.908Z,68.86
2018-11-03T04:09:34.194Z,68.06
2018-11-03T04:12:05.748Z,68.05
2018-11-03T04:14:37.175Z,68.10
2018-11-03T04:17:09.033Z,68.49
2018-11-03T04:19:40.408Z,68.72
2018-11-03T04:22:11.864Z,68.38
2018-11-03T04:24:43.259Z,68.38
2018-11-03T04:27:14.725Z,68.54
2018-11-03T04:29:46.740Z,68.35
2018-11-03T04:32:18.057Z,68.03
2018-11-03T04:34:49.795Z,68.70
2018-11-03T04:37:21.506Z,68.17
2018-11-03T04:39:54.172Z,68.03
2018-11-03T04:42:26.362Z,68.07
2018-11-03T04:44:57.920Z,68.67
2018-11-03T04:47:29.841Z,68.80
2018-11-03T04:50:02.477Z,68.71
2018-11-03T04:52:34.665Z,68.12
2018-11-03T04:58:07.666Z,68.61
2018-11-03T05:00:39.462Z,68.57
2018-11-03T05:03:10.761Z,68.40
2018-11-03T05:05:42.239Z,68.37
2018-11-03T05:08:14.238Z,68.68
2018-11-03T05:10:46.219Z,68.72
2018-11-03T05:13:19.592Z,68.43
2018-11-03T05:15:51.240Z,68.78
2018-11-03T05:18:23.047Z,68.95
2018-11-03T05:20:55.159Z,69.48
2018-11-03T05:23:26.690Z,69.30
2018-11-03T05:25:58.228Z,69.27
2018-11-03T05:28:29.379Z,68.88
2018-11-03T05:31:00.793Z,68.97
2018-11-03T05:33:33.481Z,69.07
2018-11-03T05:36:05.163Z,69.12
2018-11-03T05:38:37.413Z,69.03
2018-11-03T05:41:09.170Z,69.33
2018-11-03T05:43:40.987Z,69.43
2018-11-03T05:46:12.771Z,69.69
2018-11-03T05:48:44.500Z,69.53
2018-11-03T05:51:16.344Z,69.53
2018-11-03T05:53:47.971Z,69.69
2018-11-03T05:56:19.748Z,69.85
2018-11-03T05:58:52.635Z,69.16
2018-11-03T06:01:23.941Z,69.98
2018-11-03T06:03:56.289Z,69.91
2018-11-03T06:06:28.118Z,70.15
2018-11-03T06:08:59.578Z,69.94
2018-11-03T06:11:31.378Z,70.04
2018-11-03T06:14:03.312Z,69.84
2018-11-03T06:16:34.386Z,70.31
2018-11-03T06:19:06.058Z,70.18
2018-11-03T06:21:37.911Z,70.15
2018-11-03T06:24:10.132Z,70.04
2018-11-03T06:26:43.198Z,69.94
2018-11-03T06:29:14.915Z,70.41
2018-11-03T06:31:46.380Z,69.90
2018-11-03T06:34:18.237Z,69.85
2018-11-03T06:36:49.700Z,70.16
2018-11-03T06:39:21.572Z,70.24
2018-11-03T06:41:53.646Z,69.94
2018-11-03T06:44:25.713Z,69.98
2018-11-03T06:46:56.840Z,69.51
2018-11-03T06:49:31.422Z,69.58
2018-11-03T06:52:03.504Z,70.33
2018-11-03T06:54:34.913Z,69.83
2018-11-03T06:57:07.525Z,69.53
2018-11-03T06:59:39.560Z,69.44
2018-11-03T07:02:11.675Z,69.45
2018-11-03T07:04:43.293Z,69.18
2018-11-03T07:07:14.822Z,68.71
2018-11-03T07:09:46.476Z,68.76
2018-11-03T07:12:18.073Z,68.25
2018-11-03T07:14:50.631Z,68.32
2018-11-03T07:17:22.711Z,68.62
2018-11-03T07:19:54.819Z,68.23
2018-11-03T07:22:26.994Z,68.08
2018-11-03T07:24:58.495Z,67.70
2018-11-03T07:27:31.040Z,68.02
2018-11-03T07:30:02.599Z,67.30
2018-11-03T07:32:34.315Z,67.82
2018-11-03T07:35:07.609Z,67.77
2018-11-03T07:37:41.824Z,67.29
2018-11-03T07:40:13.250Z,66.73
2018-11-03T07:42:44.397Z,66.44
2018-11-03T07:45:15.526Z,66.31
2018-11-03T07:47:47.906Z,66.47
2018-11-03T07:50:19.079Z,66.30
2018-11-03T07:52:50.946Z,66.19
2018-11-03T07:55:23.242Z,66.55
2018-11-03T07:57:54.545Z,66.13
2018-11-03T08:00:25.654Z,66.07
2018-11-03T08:02:57.144Z,65.96
2018-11-03T08:05:29.637Z,65.34
2018-11-03T08:08:01.281Z,65.03
2018-11-03T08:10:32.835Z,64.43
2018-11-03T08:13:03.953Z,64.68
2018-11-03T08:15:35.333Z,64.14
2018-11-03T08:18:08.987Z,63.83
2018-11-03T08:20:40.947Z,64.16
2018-11-03T08:23:12.963Z,63.32
2018-11-03T08:25:44.515Z,63.53
2018-11-03T08:28:16.967Z,63.37
2018-11-03T08:30:48.375Z,62.90
2018-11-03T08:33:19.758Z,62.64
2018-11-03T08:35:51.196Z,61.87
2018-11-03T08:38:22.970Z,61.57
2018-11-03T08:40:54.067Z,61.27
2018-11-03T08:43:26.293Z,61.15
2018-11-03T08:45:57.909Z,60.58
2018-11-03T08:48:29.260Z,60.91
2018-11-03T08:51:00.662Z,60.84
2018-11-03T08:53:32.264Z,60.61
2018-11-03T08:56:04.148Z,59.55
2018-11-03T08:58:35.344Z,59.46
2018-11-03T09:01:07.010Z,59.35
2018-11-03T09:03:38.956Z,59.41
2018-11-03T09:06:10.590Z,59.24
2018-11-03T09:08:42.197Z,58.52
2018-11-03T09:11:13.520Z,58.72
2018-11-03T09:13:44.798Z,58.31
2018-11-03T09:16:16.885Z,58.85
2018-11-03T09:18:48.363Z,58.22
2018-11-03T09:21:19.649Z,58.10
2018-11-03T09:23:51.547Z,57.86
2018-11-03T09:26:24.529Z,58.04
2018-11-03T09:28:56.281Z,57.72
2018-11-03T09:31:28.713Z,57.21
2018-11-03T09:34:00.520Z,57.15
2018-11-03T09:36:34.207Z,57.46
2018-11-03T09:39:06.446Z,57.64
2018-11-03T09:41:38.036Z,57.41
2018-11-03T09:44:10.169Z,57.29
2018-11-03T09:46:45.373Z,57.37
2018-11-03T09:49:18.695Z,57.35
2018-11-03T09:51:50.286Z,57.31
2018-11-03T09:54:21.320Z,57.03
2018-11-03T09:56:53.672Z,57.59
2018-11-03T09:59:25.160Z,57.38
2018-11-03T10:01:57.267Z,57.25
2018-11-03T10:04:28.264Z,58.19
2018-11-03T10:06:59.982Z,56.93
2018-11-03T10:09:33.979Z,57.54
2018-11-03T10:12:05.457Z,57.56
2018-11-03T10:14:36.796Z,57.20
2018-11-03T10:17:08.684Z,57.71
2018-11-03T10:19:40.684Z,57.11
2018-11-03T10:22:11.860Z,56.88
2018-11-03T10:24:45.056Z,57.02
2018-11-03T10:27:17.759Z,56.84
2018-11-03T10:29:49.610Z,55.79
2018-11-03T10:32:21.649Z,56.24
2018-11-03T10:34:55.878Z,55.43
2018-11-03T10:37:29.036Z,55.51
2018-11-03T10:40:00.136Z,54.96
2018-11-03T10:42:31.663Z,54.46
2018-11-03T10:45:03.600Z,54.94
2018-11-03T10:47:34.682Z,54.83
2018-11-03T10:50:07.021Z,55.68
2018-11-03T10:52:38.172Z,56.18
2018-11-03T10:55:11.922Z,56.33
2018-11-03T10:57:43.769Z,56.50
2018-11-03T11:00:24.153Z,56.73
2018-11-03T11:03:01.498Z,56.51
2018-11-03T11:05:37.541Z,56.68
2018-11-03T11:08:14.796Z,56.99
2018-11-03T11:10:50.556Z,57.14
2018-11-03T11:13:26.776Z,57.68
2018-11-03T11:15:59.220Z,57.05
2018-11-03T11:18:32.917Z,58.08
2018-11-03T11:21:04.146Z,59.08
2018-11-03T11:23:37.015Z,59.17
2018-11-03T11:26:09.355Z,58.64
2018-11-03T11:28:40.840Z,58.32
2018-11-03T11:31:12.145Z,58.70
2018-11-03T11:33:44.219Z,58.49
2018-11-03T11:36:16.382Z,58.20
2018-11-03T11:38:48.328Z,57.42
2018-11-03T11:41:19.518Z,57.04
2018-11-03T11:43:50.963Z,56.60
2018-11-03T11:46:22.121Z,56.21
2018-11-03T11:48:53.212Z,56.54
2018-11-03T11:51:25.403Z,55.63
2018-11-03T11:53:56.654Z,55.55
2018-11-03T11:56:28.281Z,55.69
2018-11-03T11:58:59.532Z,54.79
2018-11-03T12:01:30.598Z,54.67
2018-11-03T12:04:02.529Z,54.12
2018-11-03T12:06:33.742Z,53.85
2018-11-03T12:09:05.534Z,53.47
2018-11-03T12:11:37.646Z,53.47
2018-11-03T12:14:09.086Z,52.94
2018-11-03T12:16:40.605Z,53.49
2018-11-03T12:19:12.461Z,52.83
2018-11-03T12:21:43.490Z,53.26
2018-11-03T12:24:14.960Z,53.05
2018-11-03T12:26:46.196Z,53.15
2018-11-03T12:29:17.939Z,53.52
2018-11-03T12:31:49.986Z,54.05
2018-11-03T12:34:21.079Z,54.11
2018-11-03T12:36:52.534Z,54.00
2018-11-03T12:39:24.005Z,53.75
2018-11-03T12:41:55.792Z,53.75
2018-11-03T12:44:27.122Z,53.89
2018-11-03T12:46:58.281Z,53.42
2018-11-03T12:49:29.906Z,54.23
2018-11-03T12:52:01.285Z,53.29
2018-11-03T12:54:32.464Z,53.02
2018-11-03T12:57:03.659Z,53.02
2018-11-03T12:59:34.810Z,53.11
2018-11-03T13:04:48.811Z,53.22
2018-11-03T13:07:20.477Z,53.53
2018-11-03T13:09:52.657Z,52.91
2018-11-03T13:12:23.919Z,52.88
2018-11-03T13:15:08.928Z,53.18
2018-11-03T13:17:40.798Z,53.08
2018-11-03T13:20:16.756Z,53.73
2018-11-03T13:22:49.092Z,53.79
2018-11-03T13:25:20.976Z,53.79
2018-11-03T13:27:52.602Z,54.91
2018-11-03T13:30:24.050Z,54.70
2018-11-03T13:32:57.403Z,55.16
2018-11-03T13:35:29.103Z,55.35
2018-11-03T13:38:00.606Z,55.88
2018-11-03T13:40:33.467Z,56.31
2018-11-03T13:43:06.328Z,55.72
2018-11-03T13:45:38.395Z,56.23
2018-11-03T13:48:10.388Z,56.41
2018-11-03T13:50:47.506Z,56.41
2018-11-03T13:53:21.042Z,56.30
2018-11-03T13:55:53.447Z,56.61
2018-11-03T13:58:24.855Z,56.11
2018-11-03T14:00:56.494Z,56.61
2018-11-03T14:03:27.620Z,56.67
2018-11-03T14:05:59.664Z,56.89
2018-11-03T14:08:31.784Z,56.98
2018-11-03T14:11:03.211Z,56.89
2018-11-03T14:13:34.825Z,57.49
2018-11-03T14:16:08.170Z,57.58
2018-11-03T14:18:40.629Z,57.61
2018-11-03T14:21:12.151Z,57.99
2018-11-03T14:23:43.977Z,57.84
2018-11-03T14:26:15.111Z,58.07
2018-11-03T14:28:46.832Z,58.30
2018-11-03T14:31:17.880Z,58.46
2018-11-03T14:33:50.046Z,58.06
2018-11-03T14:36:21.385Z,59.12
2018-11-03T14:38:53.371Z,58.70
2018-11-03T14:41:25.027Z,58.59
2018-11-03T14:43:56.454Z,59.39
2018-11-03T14:46:27.418Z,59.40
2018-11-03T14:48:58.820Z,59.81
2018-11-03T14:51:30.523Z,59.74
2018-11-03T14:54:01.849Z,60.11
2018-11-03T14:56:32.920Z,60.17
2018-11-03T14:59:05.299Z,60.03
2018-11-03T15:01:36.442Z,60.16
2018-11-03T15:04:08.474Z,60.27
2018-11-03T15:06:39.918Z,60.61
2018-11-03T15:09:11.294Z,60.27
2018-11-03T15:11:42.602Z,60.97
2018-11-03T15:14:13.863Z,61.69
2018-11-03T15:16:44.922Z,61.76
2018-11-03T15:19:16.276Z,61.68
2018-11-03T15:21:47.682Z,62.08
2018-11-03T15:24:18.922Z,61.75
2018-11-03T15:26:51.259Z,62.51
2018-11-03T15:29:23.209Z,62.49
2018-11-03T15:31:54.518Z,63.08
2018-11-03T15:34:25.935Z,63.33
2018-11-03T15:36:57.263Z,64.06
2018-11-03T15:39:30.034Z,63.97
2018-11-03T15:42:01.229Z,64.15
2018-11-03T15:44:32.489Z,64.88
2018-11-03T15:47:03.956Z,64.72
2018-11-03T15:49:35.614Z,64.50
2018-11-03T15:52:10.148Z,64.96
2018-11-03T15:54:41.892Z,65.47
2018-11-03T15:57:14.440Z,66.01
2018-11-03T15:59:45.428Z,65.72
2018-11-03T16:02:16.929Z,66.29
2018-11-03T16:04:48.554Z,66.93
2018-11-03T16:07:19.826Z,66.99
2018-11-03T16:09:52.022Z,66.85
2018-11-03T16:12:24.363Z,67.68
2018-11-03T16:14:55.552Z,67.48
2018-11-03T16:17:27.080Z,67.40
2018-11-03T16:19:59.029Z,68.03
2018-11-03T16:22:30.858Z,68.18
2018-11-03T16:25:02.754Z,68.37
2018-11-03T16:27:34.626Z,68.61
2018-11-03T16:30:06.571Z,68.71
2018-11-03T16:32:38.685Z,68.16
2018-11-03T16:35:11.230Z,68.58
2018-11-03T16:37:43.009Z,68.56
2018-11-03T16:40:15.978Z,68.89
2018-11-03T16:42:47.989Z,69.26
2018-11-03T16:45:21.070Z,69.36
2018-11-03T16:47:53.549Z,69.36
2018-11-03T16:50:25.722Z,69.09
2018-11-03T16:52:57.038Z,69.20
2018-11-03T16:55:28.558Z,69.15
2018-11-03T16:57:59.607Z,69.08
2018-11-03T17:00:31.371Z,69.11
2018-11-03T17:03:05.491Z,69.80
2018-11-03T17:05:36.738Z,69.33
2018-11-03T17:08:08.942Z,70.16
2018-11-03T17:10:40.409Z,70.01
2018-11-03T17:13:11.779Z,69.90
2018-11-03T17:15:44.661Z,70.00
2018-11-03T17:18:16.855Z,70.21
2018-11-03T17:20:48.673Z,70.11
2018-11-03T17:26:05.547Z,70.56
2018-11-03T17:28:41.399Z,70.38
2018-11-03T17:31:12.957Z,70.41
2018-11-03T17:33:45.453Z,70.71
2018-11-03T17:36:19.079Z,70.34
2018-11-03T17:38:54.710Z,70.26
2018-11-03T17:41:26.680Z,70.24
2018-11-03T17:43:58.478Z,70.36
2018-11-03T17:46:30.329Z,70.38
2018-11-03T17:49:03.248Z,69.85
2018-11-03T17:57:03.124Z,69.53
2018-11-03T17:59:35.231Z,69.32
2018-11-03T18:02:07.262Z,69.24
2018-11-03T18:04:39.699Z,69.32
2018-11-03T18:07:11.824Z,69.46
2018-11-03T18:09:44.808Z,68.84
2018-11-03T18:12:16.722Z,68.88
2018-11-03T18:14:48.587Z,69.36
2018-11-03T18:17:20.614Z,68.53
2018-11-03T18:19:52.286Z,68.92
2018-11-03T18:22:23.851Z,68.80
2018-11-03T18:24:56.322Z,68.85
2018-11-03T18:27:27.544Z,68.56
2018-11-03T18:29:58.781Z,68.97
2018-11-03T18:32:31.514Z,68.84
2018-11-03T18:35:04.027Z,68.23
2018-11-03T18:37:35.901Z,69.07
2018-11-03T18:40:09.071Z,68.66
2018-11-03T18:42:42.225Z,68.77
2018-11-03T18:45:14.908Z,69.08
2018-11-03T18:47:46.930Z,68.88
2018-11-03T18:50:19.330Z,68.88
2018-11-03T18:52:52.802Z,68.65
2018-11-03T18:55:26.356Z,69.45
2018-11-03T18:57:58.993Z,69.01
2018-11-03T19:00:31.150Z,69.05
2018-11-03T19:03:05.645Z,68.84
2018-11-03T19:05:39.465Z,68.83
2018-11-03T19:08:13.795Z,68.75
2018-11-03T19:10:47.666Z,69.03
2018-11-03T19:13:20.750Z,68.61
2018-11-03T19:15:53.585Z,69.29
2018-11-03T19:18:26.700Z,69.11
2018-11-03T19:21:07.210Z,68.83
2018-11-03T19:23:48.764Z,68.94
2018-11-03T19:26:24.846Z,69.16
2018-11-03T19:28:59.060Z,68.39
2018-11-03T19:31:33.761Z,68.51
2018-11-03T19:34:07.326Z,68.84
2018-11-03T19:36:40.677Z,68.79
2018-11-03T19:39:13.337Z,69.32
2018-11-03T19:41:45.964Z,68.90
2018-11-03T19:44:18.418Z,68.91
2018-11-03T19:46:51.920Z,69.12
2018-11-03T19:49:26.671Z,69.46
2018-11-03T19:51:59.210Z,68.99
2018-11-03T19:54:34.855Z,69.28
2018-11-03T19:57:08.872Z,69.26
2018-11-03T19:59:43.432Z,69.48
2018-11-03T20:02:20.324Z,69.16
2018-11-03T20:04:55.049Z,69.35
2018-11-03T20:07:28.173Z,69.92
2018-11-03T20:10:01.390Z,69.71
2018-11-03T20:12:37.421Z,70.16
2018-11-03T20:15:16.019Z,69.72
2018-11-03T20:17:50.508Z,69.68
2018-11-03T20:20:24.719Z,69.72
2018-11-03T20:22:59.652Z,69.85
2018-11-03T20:25:35.372Z,69.77
2018-11-03T20:28:09.991Z,70.20
2018-11-03T20:30:54.071Z,69.89
2018-11-03T20:33:27.619Z,69.74
2018-11-03T20:36:03.792Z,70.56
2018-11-03T20:38:37.736Z,69.91
2018-11-03T20:41:14.443Z,70.12
2018-11-03T20:43:54.394Z,69.57
2018-11-03T20:46:29.346Z,69.63
2018-11-03T20:49:03.902Z,70.09
2018-11-03T20:51:38.754Z,70.06
2018-11-03T20:54:11.771Z,70.13
2018-11-03T20:56:44.305Z,70.28
2018-11-03T20:59:16.494Z,70.48
2018-11-03T21:01:48.148Z,70.26
2018-11-03T21:04:21.987Z,70.18
2018-11-03T21:06:53.955Z,70.15
2018-11-03T21:09:26.622Z,69.67
2018-11-03T21:12:00.089Z,69.81
2018-11-03T21:14:32.956Z,70.24
2018-11-03T21:17:07.708Z,70.52
2018-11-03T21:19:41.134Z,69.96
2018-11-03T21:22:17.503Z,69.63
2018-11-03T21:24:51.021Z,70.33
2018-11-03T21:27:25.121Z,70.09
2018-11-03T21:29:58.294Z,69.96
2018-11-03T21:32:33.382Z,70.08
2018-11-03T21:35:06.499Z,70.72
2018-11-03T21:37:40.493Z,69.72
2018-11-03T21:40:14.506Z,70.15
2018-11-03T21:42:49.794Z,69.77
2018-11-03T21:45:23.777Z,70.17
2018-11-03T21:47:54.958Z,69.88
2018-11-03T21:50:38.066Z,70.22
2018-11-03T21:53:26.542Z,69.72
2018-11-03T21:56:10.943Z,69.80
2018-11-03T21:58:53.488Z,69.39
2018-11-03T22:01:36.873Z,69.75
2018-11-03T22:04:27.917Z,69.99
2018-11-03T22:07:21.440Z,69.97
2018-11-03T22:09:52.537Z,69.89
2018-11-03T22:12:39.352Z,69.85
2018-11-03T22:18:10.595Z,70.29
2018-11-03T22:20:49.212Z,70.10
2018-11-03T22:23:37.140Z,70.28
2018-11-03T22:26:13.340Z,69.91
2018-11-03T22:28:57.418Z,70.13
2018-11-03T22:31:29.468Z,70.22
2018-11-03T22:34:02.151Z,70.12
2018-11-03T22:36:35.075Z,70.79
2018-11-03T22:39:09.124Z,70.17
2018-11-03T22:41:40.872Z,70.33
2018-11-03T22:44:14.001Z,71.09
2018-11-03T22:46:45.551Z,70.65
2018-11-03T22:49:18.312Z,70.33
2018-11-03T22:52:03.279Z,70.66
2018-11-03T22:54:38.778Z,70.74
2018-11-03T22:59:59.702Z,71.35
2018-11-03T23:02:39.777Z,71.33
2018-11-03T23:05:26.673Z,71.64
2018-11-03T23:08:10.733Z,71.46
2018-11-03T23:10:58.746Z,70.73
2018-11-03T23:13:34.228Z,71.21
2018-11-03T23:16:19.016Z,70.85
2018-11-03T23:18:55.400Z,71.34
2018-11-03T23:21:40.306Z,70.67
2018-11-03T23:24:22.067Z,70.95
2018-11-03T23:27:00.709Z,70.53
2018-11-03T23:32:21.022Z,70.72
2018-11-03T23:34:53.484Z,70.57
2018-11-03T23:37:25.425Z,70.73
2018-11-03T23:39:57.193Z,70.32
2018-11-03T23:42:28.323Z,70.56
2018-11-03T23:45:00.910Z,70.22
2018-11-03T23:47:33.126Z,70.72
2018-11-03T23:50:16.223Z,70.77
2018-11-03T23:52:54.785Z,71.06
2018-11-03T23:55:35.028Z,70.92
2018-11-03T23:58:13.250Z,71.07
